CYXZ

Wawa Airport

Wawa, Ontario, Canada
METAR CYXZ 181106Z VRB02KT 5/8SM -RA BR BKN007 OVC023 15/15 A2983 RMK FG6SF1SC1 SLP104 DENSITY ALT 1300FT
Observed Flight Rules
Jun-18 @ 11:06 UTC (20 minutes ago) Instrument Flight Rules
Wind Visibility Clouds Conditions
Variable at 2 knots 1/63 miles
  • Broken at 700' AGL
  • Overcast at 2,300' AGL
  • Light Rain
  • Mist
Temperatures Readings
Current 15°C / 59°F
Dewpoint 15°C / 59°F
Humidity 100%
Altimeter 29.83" Hg
Pressure 1010.4 hPa
Elevation 287
METAR CYXZ 181106Z VRB02KT 5/8SM -RA BR BKN007 OVC023 15/15 A2983 RMK FG6SF1SC1 SLP104 DENSITY ALT 1300FT
Observed Flight Rules
Jun-18 @ 11:06 UTC
(20 minutes ago)
LIFR
Wind Visibility
Variable at 2 knots 1/63 miles
Clouds
  • Broken at 700' AGL
  • Overcast at 2,300' AGL
Conditions
  • Light Rain
  • Mist
Temperature Dewpoint
15°C / 59°F 15°C / 59°F
Humidity Altimeter Pressure
100% 29.83" Hg 1010.4 hPa